Time;durP1;ratioP1;P1;durP2;ratioP2;P2;SDS_P1;SDS_P2;PMS_P1;PMS_P2;Temp;Humidity;BMP_temperature;BMP_pressure;BME280_temperature;BME280_humidity;BME280_pressure;Samples;Min_cycle;Max_cycle;Signal;HPM_P1;HPM_P2
2021/04/17 00:02:21;;;;;;;4.47;1.90;;;6.60;93.70;;;;;;5033703;28;20043;-73
2021/04/17 00:04:47;;;;;;;2.58;1.63;;;6.50;86.20;;;;;;5033641;28;20030;-73
2021/04/17 00:07:15;;;;;;;1.80;1.30;;;6.20;91.30;;;;;;5032844;28;20026;-73
2021/04/17 00:09:41;;;;;;;2.67;1.65;;;6.10;96.10;;;;;;5032058;28;20495;-73
2021/04/17 00:12:12;;;;;;;3.97;1.60;;;6.20;94.20;;;;;;5032835;28;20096;-73
2021/04/17 00:14:39;;;;;;;6.60;1.60;;;6.30;94.40;;;;;;5033159;28;20056;-73
2021/04/17 00:17:06;;;;;;;4.07;1.88;;;6.40;92.90;;;;;;5041231;28;20506;-73
2021/04/17 00:19:33;;;;;;;2.50;1.70;;;6.40;95.50;;;;;;5051826;28;20053;-73
2021/04/17 00:21:59;;;;;;;1.90;1.58;;;6.30;96.50;;;;;;5033268;28;20029;-73
2021/04/17 00:24:24;;;;;;;4.38;1.75;;;6.10;97.00;;;;;;5033948;28;20033;-73
2021/04/17 00:26:50;;;;;;;2.47;1.70;;;5.70;97.90;;;;;;5033765;28;20101;-73
2021/04/17 00:29:16;;;;;;;2.63;1.67;;;5.80;97.50;;;;;;5032385;28;20033;-73
2021/04/17 00:31:42;;;;;;;3.80;2.15;;;5.90;96.20;;;;;;5033931;28;20030;-73
2021/04/17 00:34:08;;;;;;;5.50;2.00;;;6.10;96.20;;;;;;5033501;28;20036;-73
2021/04/17 00:36:34;;;;;;;5.55;2.35;;;6.10;97.10;;;;;;5033320;28;20018;-73
2021/04/17 00:39:02;;;;;;;2.47;1.60;;;6.00;97.80;;;;;;5033549;28;20022;-73
2021/04/17 00:41:27;;;;;;;4.30;2.35;;;6.00;98.80;;;;;;5033420;28;20079;-72
2021/04/17 00:43:53;;;;;;;2.92;2.20;;;6.00;97.50;;;;;;5033439;28;20491;-72
2021/04/17 00:46:20;;;;;;;4.80;2.10;;;5.80;96.20;;;;;;5033505;28;20017;-72
2021/04/17 00:48:46;;;;;;;2.53;2.33;;;5.70;97.40;;;;;;5033364;28;20021;-72
2021/04/17 00:51:14;;;;;;;4.38;2.17;;;5.70;97.80;;;;;;5044137;28;20017;-72
2021/04/17 00:53:41;;;;;;;2.53;2.28;;;5.60;97.50;;;;;;5052473;28;20490;-72
2021/04/17 00:56:09;;;;;;;3.28;2.13;;;5.50;96.80;;;;;;5052876;28;20486;-72
2021/04/17 00:58:36;;;;;;;4.53;1.95;;;5.50;99.70;;;;;;5053155;28;20079;-72
2021/04/17 01:01:04;;;;;;;6.35;3.83;;;5.30;99.30;;;;;;5052995;28;20152;-72
2021/04/17 01:03:46;;;;;;;5.18;2.47;;;5.20;98.60;;;;;;5052064;28;20068;-72
2021/04/17 01:06:29;;;;;;;3.58;2.25;;;4.90;99.00;;;;;;5052213;28;20033;-72
2021/04/17 01:09:13;;;;;;;2.70;1.85;;;5.10;99.70;;;;;;5053049;28;20029;-72
2021/04/17 01:12:06;;;;;;;3.13;2.08;;;5.30;98.80;;;;;;5052726;28;20442;-72
2021/04/17 01:14:33;;;;;;;2.78;1.92;;;5.00;98.20;;;;;;5052272;28;20051;-72
2021/04/17 01:17:01;;;;;;;2.53;1.80;;;5.10;99.90;;;;;;5052837;28;20502;-72
2021/04/17 01:19:39;;;;;;;3.67;2.08;;;5.10;99.20;;;;;;5052781;28;20021;-72
2021/04/17 01:22:17;;;;;;;3.03;1.92;;;4.90;99.90;;;;;;5013139;28;20113;-73
2021/04/17 01:24:45;;;;;;;4.97;2.70;;;5.00;99.90;;;;;;5013041;28;20053;-73
2021/04/17 01:27:12;;;;;;;5.65;2.78;;;5.00;99.90;;;;;;5012956;28;20076;-73
2021/04/17 01:29:41;;;;;;;3.85;2.28;;;4.90;99.90;;;;;;5012700;28;20022;-72
2021/04/17 01:32:13;;;;;;;3.10;2.30;;;4.80;99.90;;;;;;5012907;28;20018;-73
2021/04/17 01:34:44;;;;;;;3.53;2.13;;;4.60;99.90;;;;;;5012734;28;20295;-72
2021/04/17 01:37:11;;;;;;;4.43;1.88;;;4.60;99.90;;;;;;5012769;28;20494;-72
2021/04/17 01:39:39;;;;;;;3.55;1.85;;;4.60;99.90;;;;;;5022088;28;20029;-72
2021/04/17 01:42:08;;;;;;;2.53;2.33;;;4.60;99.90;;;;;;5032558;28;20483;-72
2021/04/17 01:44:39;;;;;;;6.63;1.80;;;4.40;99.90;;;;;;5034135;28;20025;-72
2021/04/17 01:47:08;;;;;;;3.72;2.10;;;4.30;99.90;;;;;;5052271;28;20036;-72
2021/04/17 01:49:39;;;;;;;2.55;1.83;;;4.20;99.90;;;;;;5051795;28;20087;-72
2021/04/17 01:52:07;;;;;;;3.63;2.65;;;4.30;99.90;;;;;;5012485;28;20044;-72
2021/04/17 01:54:50;;;;;;;4.25;2.10;;;4.20;99.90;;;;;;5012430;28;20026;-72
2021/04/17 01:57:21;;;;;;;4.65;2.50;;;3.90;99.90;;;;;;5012831;28;20033;-72
2021/04/17 01:59:48;;;;;;;4.78;2.80;;;4.00;99.90;;;;;;5012112;28;20061;-72
2021/04/17 02:02:16;;;;;;;6.97;2.42;;;4.10;99.90;;;;;;5012183;28;20384;-72
2021/04/17 02:04:43;;;;;;;6.72;1.73;;;4.20;99.90;;;;;;5014614;28;20040;-72
2021/04/17 02:07:09;;;;;;;3.72;1.90;;;4.20;99.90;;;;;;5044865;28;20029;-72
2021/04/17 02:09:35;;;;;;;2.92;2.17;;;4.20;99.90;;;;;;5051836;28;20544;-72
2021/04/17 02:12:01;;;;;;;5.13;2.42;;;4.20;99.90;;;;;;5052011;28;20041;-72
2021/04/17 02:14:28;;;;;;;4.15;2.28;;;4.30;99.90;;;;;;5051832;28;20426;-72
2021/04/17 02:17:03;;;;;;;3.72;2.60;;;4.30;99.90;;;;;;5051766;28;20037;-72
2021/04/17 02:19:52;;;;;;;4.47;2.13;;;4.30;99.90;;;;;;5051526;28;20517;-72
2021/04/17 02:22:21;;;;;;;2.88;1.83;;;4.30;99.90;;;;;;5012293;28;20022;-72
2021/04/17 02:24:47;;;;;;;3.17;2.58;;;4.40;99.90;;;;;;5012067;28;20041;-72
2021/04/17 02:27:13;;;;;;;4.40;2.33;;;4.60;99.90;;;;;;5011999;28;20033;-72
2021/04/17 02:29:39;;;;;;;3.97;2.13;;;4.70;99.90;;;;;;5012063;28;20029;-72
2021/04/17 02:32:12;;;;;;;2.15;1.90;;;4.70;99.90;;;;;;5012128;28;20055;-72
2021/04/17 02:34:38;;;;;;;3.10;1.90;;;4.60;99.90;;;;;;5012142;28;20145;-72
2021/04/17 02:37:03;;;;;;;2.88;2.35;;;4.40;99.90;;;;;;5012098;28;20112;-72
2021/04/17 02:39:29;;;;;;;4.85;2.50;;;4.50;99.90;;;;;;5020417;28;20043;-72
2021/04/17 02:41:55;;;;;;;3.20;2.28;;;4.50;99.90;;;;;;5030707;28;20108;-72
2021/04/17 02:44:21;;;;;;;3.65;2.10;;;4.60;99.90;;;;;;5031767;28;20068;-72
2021/04/17 02:46:46;;;;;;;3.63;2.50;;;4.70;99.90;;;;;;5031095;28;20530;-73
2021/04/17 02:49:12;;;;;;;2.97;2.67;;;4.80;99.90;;;;;;5038499;28;20497;-72
2021/04/17 02:51:38;;;;;;;3.25;2.15;;;4.70;99.90;;;;;;5051476;28;20025;-72
2021/04/17 02:54:04;;;;;;;3.58;2.17;;;4.70;99.90;;;;;;5051494;28;20025;-72
2021/04/17 02:56:29;;;;;;;3.72;2.10;;;4.50;99.90;;;;;;5051281;28;20559;-72
2021/04/17 02:58:55;;;;;;;1.98;1.77;;;4.30;99.90;;;;;;5051189;28;20067;-72
2021/04/17 03:01:21;;;;;;;1.85;1.67;;;4.50;99.90;;;;;;5051395;28;20025;-72
2021/04/17 03:03:47;;;;;;;2.88;1.83;;;4.60;99.90;;;;;;5050315;28;20029;-72
2021/04/17 03:06:12;;;;;;;3.00;2.10;;;4.60;99.90;;;;;;5051437;28;20032;-72
2021/04/17 03:08:38;;;;;;;2.85;2.10;;;4.50;99.90;;;;;;5051366;28;20044;-72
2021/04/17 03:11:04;;;;;;;2.63;2.08;;;4.40;99.90;;;;;;5051097;28;20096;-72
2021/04/17 03:13:29;;;;;;;3.88;2.22;;;4.20;99.90;;;;;;5051305;28;20467;-72
2021/04/17 03:15:55;;;;;;;2.05;1.83;;;4.60;99.90;;;;;;5050958;28;20031;-72
2021/04/17 03:18:22;;;;;;;3.83;2.65;;;4.70;99.90;;;;;;5052805;28;20028;-72
2021/04/17 03:20:48;;;;;;;2.63;2.03;;;4.70;99.90;;;;;;5035166;28;20036;-72
2021/04/17 03:23:14;;;;;;;3.53;1.95;;;4.70;99.90;;;;;;5035061;28;20029;-72
2021/04/17 03:25:40;;;;;;;2.00;1.77;;;4.70;99.90;;;;;;5035045;28;20030;-72
2021/04/17 03:28:07;;;;;;;4.97;2.40;;;4.60;99.90;;;;;;5034987;28;20523;-72
2021/04/17 03:30:32;;;;;;;2.92;2.28;;;4.50;99.90;;;;;;5034677;28;20021;-72
2021/04/17 03:32:59;;;;;;;2.72;1.88;;;4.60;99.90;;;;;;5033956;28;20399;-72
2021/04/17 03:35:26;;;;;;;3.55;2.17;;;4.70;99.50;;;;;;5034734;28;20030;-72
2021/04/17 03:37:52;;;;;;;3.72;1.98;;;4.90;99.90;;;;;;5034664;28;20053;-72
2021/04/17 03:40:19;;;;;;;3.03;2.30;;;4.90;99.80;;;;;;5034571;28;20118;-72
2021/04/17 03:42:45;;;;;;;2.80;2.20;;;5.00;98.00;;;;;;5034508;28;20494;-72
2021/04/17 03:45:12;;;;;;;3.78;2.47;;;5.00;97.70;;;;;;5034271;28;20028;-72
2021/04/17 03:47:39;;;;;;;4.25;2.47;;;4.90;97.70;;;;;;5034521;28;20036;-72
2021/04/17 03:50:06;;;;;;;2.22;1.90;;;4.80;98.60;;;;;;5033884;28;20021;-72
2021/04/17 03:52:32;;;;;;;2.47;2.05;;;4.80;99.90;;;;;;5033895;28;20041;-72
2021/04/17 03:54:58;;;;;;;3.47;1.90;;;4.70;99.90;;;;;;5034392;28;20032;-72
2021/04/17 03:57:23;;;;;;;5.40;2.40;;;4.60;99.90;;;;;;5034482;28;20034;-72
2021/04/17 03:59:49;;;;;;;3.80;1.92;;;4.30;99.90;;;;;;5033747;28;20041;-72
2021/04/17 04:02:15;;;;;;;2.38;2.03;;;4.20;99.90;;;;;;5033973;28;20022;-72
2021/04/17 04:04:41;;;;;;;3.22;2.25;;;4.30;99.90;;;;;;5033739;28;20361;-72
2021/04/17 04:07:07;;;;;;;3.05;2.20;;;4.60;99.50;;;;;;5034217;28;20510;-72
2021/04/17 04:09:33;;;;;;;3.80;2.13;;;4.80;99.20;;;;;;5034147;28;20025;-72
2021/04/17 04:11:59;;;;;;;2.28;1.95;;;4.80;98.10;;;;;;5034207;28;20507;-72
2021/04/17 04:14:25;;;;;;;2.40;2.05;;;4.90;98.80;;;;;;5033774;28;20021;-72
2021/04/17 04:16:51;;;;;;;2.55;1.92;;;4.80;97.20;;;;;;5034208;28;20369;-72
2021/04/17 04:19:17;;;;;;;2.58;2.20;;;4.80;98.20;;;;;;5041848;28;20039;-72
2021/04/17 04:21:43;;;;;;;6.05;2.20;;;4.80;98.90;;;;;;5053887;28;20096;-72
2021/04/17 04:24:09;;;;;;;10.60;4.28;;;4.80;97.80;;;;;;5053894;28;20398;-72
2021/04/17 04:26:36;;;;;;;3.58;2.22;;;4.70;98.90;;;;;;5053920;28;20033;-72
2021/04/17 04:29:03;;;;;;;2.65;2.05;;;4.80;99.10;;;;;;5052536;28;20036;-72
2021/04/17 04:31:29;;;;;;;5.20;2.00;;;4.80;97.00;;;;;;5053587;28;20029;-72
2021/04/17 04:33:54;;;;;;;3.35;2.05;;;4.80;97.70;;;;;;5038886;28;20033;-72
2021/04/17 04:36:20;;;;;;;3.25;2.25;;;4.80;96.20;;;;;;5032132;28;20029;-72
2021/04/17 04:38:46;;;;;;;3.00;1.98;;;4.80;94.70;;;;;;5033785;28;20068;-72
2021/04/17 04:41:12;;;;;;;3.13;2.20;;;4.70;95.00;;;;;;5033462;28;20025;-72
2021/04/17 04:43:38;;;;;;;2.25;2.03;;;4.50;95.40;;;;;;5033170;28;20570;-72
2021/04/17 04:46:03;;;;;;;2.42;2.00;;;4.50;96.00;;;;;;5033474;28;20030;-72
2021/04/17 04:48:29;;;;;;;5.53;2.00;;;4.60;95.50;;;;;;5033236;28;20064;-72
2021/04/17 04:50:55;;;;;;;5.35;2.25;;;4.60;96.10;;;;;;5033519;28;20049;-72
2021/04/17 04:53:21;;;;;;;3.42;2.40;;;4.50;95.80;;;;;;5033363;28;20108;-72
2021/04/17 04:55:46;;;;;;;5.55;2.63;;;4.50;94.50;;;;;;5033420;28;20044;-72
2021/04/17 04:58:12;;;;;;;4.85;2.60;;;4.50;93.70;;;;;;5032963;28;20025;-72
2021/04/17 05:00:38;;;;;;;3.67;1.92;;;4.50;93.00;;;;;;5033136;28;20052;-72
2021/04/17 05:03:04;;;;;;;4.82;2.30;;;4.70;93.60;;;;;;5033106;28;20040;-72
2021/04/17 05:05:30;;;;;;;3.65;2.53;;;4.70;93.20;;;;;;5033186;28;20025;-72
2021/04/17 05:07:55;;;;;;;4.45;2.10;;;4.60;93.90;;;;;;5033298;28;20029;-72
2021/04/17 05:10:21;;;;;;;3.28;2.00;;;4.60;94.00;;;;;;5037639;28;20052;-72
2021/04/17 05:12:47;;;;;;;2.35;2.00;;;4.60;94.70;;;;;;5052704;28;20085;-72
2021/04/17 05:15:13;;;;;;;3.67;2.83;;;4.70;96.20;;;;;;5053014;28;20029;-72
2021/04/17 05:17:38;;;;;;;2.72;1.88;;;4.60;95.90;;;;;;5053076;28;20021;-72
2021/04/17 05:20:05;;;;;;;2.60;2.28;;;4.30;96.80;;;;;;5052901;28;20028;-72
2021/04/17 05:22:31;;;;;;;3.25;2.45;;;4.30;96.50;;;;;;5052335;28;20021;-72
2021/04/17 05:24:57;;;;;;;3.90;2.35;;;4.30;96.50;;;;;;5052697;28;20039;-72
2021/04/17 05:27:23;;;;;;;2.38;2.00;;;4.30;95.50;;;;;;5052245;28;20029;-72
2021/04/17 05:29:48;;;;;;;3.40;2.60;;;4.40;97.60;;;;;;5052815;28;20025;-72
2021/04/17 05:32:14;;;;;;;3.40;2.20;;;4.30;97.10;;;;;;5051250;28;20025;-72
2021/04/17 05:34:40;;;;;;;6.13;2.03;;;4.30;97.20;;;;;;5051999;28;20394;-72
2021/04/17 05:37:06;;;;;;;3.17;2.25;;;4.50;98.00;;;;;;5051792;28;20036;-72
2021/04/17 05:39:31;;;;;;;2.83;2.10;;;4.70;96.50;;;;;;5042661;28;20037;-72
2021/04/17 05:41:57;;;;;;;3.90;2.72;;;4.70;95.20;;;;;;5031964;28;20029;-72
2021/04/17 05:44:24;;;;;;;5.32;2.42;;;4.80;96.20;;;;;;5032202;28;20029;-72
2021/04/17 05:46:49;;;;;;;5.35;2.65;;;4.80;95.40;;;;;;5032338;28;20030;-72
2021/04/17 05:49:15;;;;;;;2.90;2.65;;;4.80;96.30;;;;;;5031255;28;20072;-72
2021/04/17 05:51:43;;;;;;;2.78;2.50;;;4.80;95.50;;;;;;5032095;28;20026;-72
2021/04/17 05:54:10;;;;;;;3.08;2.25;;;4.90;95.30;;;;;;5032443;28;20071;-72
2021/04/17 05:56:36;;;;;;;4.07;2.20;;;4.90;93.10;;;;;;5031965;28;20434;-72
2021/04/17 05:59:02;;;;;;;3.30;2.30;;;4.80;93.00;;;;;;5031075;28;20100;-72
2021/04/17 06:01:28;;;;;;;2.55;2.30;;;4.90;93.40;;;;;;5040558;28;20108;-72
2021/04/17 06:03:54;;;;;;;2.78;2.35;;;5.00;91.70;;;;;;5043168;28;20132;-72
2021/04/17 06:06:19;;;;;;;3.55;2.25;;;5.10;93.50;;;;;;5034904;28;20519;-72
2021/04/17 06:08:45;;;;;;;5.30;2.65;;;5.10;91.60;;;;;;5032636;28;20437;-73
2021/04/17 06:11:11;;;;;;;8.80;3.10;;;5.20;92.50;;;;;;5036448;28;20556;-72
2021/04/17 06:13:37;;;;;;;2.25;2.05;;;5.30;90.90;;;;;;5038259;28;20029;-72
2021/04/17 06:16:05;;;;;;;4.45;2.38;;;5.40;91.60;;;;;;5042346;28;20025;-72
2021/04/17 06:18:32;;;;;;;3.80;2.67;;;5.50;94.20;;;;;;5038008;28;20087;-73
2021/04/17 06:20:58;;;;;;;6.93;2.92;;;5.60;92.70;;;;;;5039678;28;20271;-73
2021/04/17 06:23:24;;;;;;;4.30;2.58;;;5.70;94.30;;;;;;5044028;28;20021;-73
2021/04/17 06:25:50;;;;;;;5.05;2.88;;;5.80;92.40;;;;;;5034369;28;20060;-73
2021/04/17 06:28:16;;;;;;;2.95;2.50;;;6.00;91.30;;;;;;5038978;28;20035;-72
2021/04/17 06:30:42;;;;;;;2.90;2.60;;;6.10;91.70;;;;;;5039813;28;20078;-72
2021/04/17 06:33:09;;;;;;;4.28;2.72;;;6.10;90.10;;;;;;5039930;28;20029;-72
2021/04/17 06:35:36;;;;;;;4.40;2.85;;;6.30;84.20;;;;;;5034031;28;20029;-73
2021/04/17 06:38:03;;;;;;;5.57;3.90;;;6.40;84.80;;;;;;5037667;28;20030;-73
2021/04/17 06:40:29;;;;;;;5.82;3.70;;;6.40;85.90;;;;;;5030558;28;20037;-73
2021/04/17 06:42:59;;;;;;;11.48;2.83;;;6.50;81.80;;;;;;5037514;28;20048;-73
2021/04/17 06:45:25;;;;;;;5.05;3.17;;;6.30;78.20;;;;;;5042388;28;20055;-72
2021/04/17 06:47:51;;;;;;;4.55;2.05;;;6.20;75.40;;;;;;5034475;28;20433;-72
2021/04/17 06:50:18;;;;;;;4.95;3.45;;;6.40;77.80;;;;;;5031296;28;20395;-72
2021/04/17 06:52:47;;;;;;;6.85;3.42;;;6.50;78.50;;;;;;5032231;28;20453;-72
2021/04/17 06:55:13;;;;;;;4.78;2.22;;;6.50;77.00;;;;;;5042169;28;20049;-72
2021/04/17 06:57:41;;;;;;;4.55;3.00;;;6.40;75.50;;;;;;5040412;28;20210;-72
2021/04/17 07:00:10;;;;;;;4.50;2.83;;;6.80;81.30;;;;;;5035184;28;20049;-72
2021/04/17 07:02:36;;;;;;;6.10;3.13;;;6.70;76.20;;;;;;5035572;28;20379;-73
2021/04/17 07:05:04;;;;;;;5.82;3.58;;;6.70;76.80;;;;;;5035161;28;20071;-73
2021/04/17 07:07:31;;;;;;;5.45;2.92;;;6.60;75.60;;;;;;5037293;28;20029;-73
2021/04/17 07:09:56;;;;;;;4.03;3.10;;;7.00;82.70;;;;;;5035086;28;20029;-73
2021/04/17 07:12:22;;;;;;;3.25;2.78;;;7.60;77.30;;;;;;5034721;28;20079;-73
2021/04/17 07:14:50;;;;;;;6.53;3.30;;;7.40;74.50;;;;;;5042141;28;20087;-73
2021/04/17 07:17:17;;;;;;;5.65;3.42;;;7.30;75.90;;;;;;5053395;28;20456;-73
2021/04/17 07:19:45;;;;;;;5.93;2.63;;;7.50;78.60;;;;;;5036447;28;20067;-73
2021/04/17 07:22:25;;;;;;;4.65;2.92;;;7.20;72.10;;;;;;5034429;28;20088;-73
2021/04/17 07:24:53;;;;;;;4.70;3.65;;;7.10;76.50;;;;;;5035282;28;20075;-73
2021/04/17 07:27:31;;;;;;;5.97;3.08;;;7.30;78.30;;;;;;5018098;28;20018;-73
2021/04/17 07:30:03;;;;;;;3.15;2.70;;;7.70;77.30;;;;;;5035429;28;20084;-73
2021/04/17 07:32:28;;;;;;;4.25;2.90;;;7.70;77.80;;;;;;5033343;28;20063;-73
2021/04/17 07:35:12;;;;;;;3.90;3.50;;;7.80;77.30;;;;;;5033896;28;20033;-73
2021/04/17 07:37:40;;;;;;;4.35;2.70;;;7.90;75.70;;;;;;5033913;28;20033;-73
2021/04/17 07:40:27;;;;;;;4.75;3.22;;;7.80;74.00;;;;;;5032357;28;20032;-73
2021/04/17 07:42:57;;;;;;;3.88;2.90;;;7.80;74.40;;;;;;5036219;28;20056;-73
2021/04/17 07:45:32;;;;;;;5.32;3.05;;;7.90;73.70;;;;;;5033450;28;20312;-75
2021/04/17 07:48:01;;;;;;;5.20;2.38;;;8.00;73.30;;;;;;5033603;28;20518;-72
2021/04/17 07:50:35;;;;;;;4.35;3.38;;;7.90;72.20;;;;;;5026725;28;20445;-72
2021/04/17 07:53:01;;;;;;;5.07;2.85;;;8.10;74.00;;;;;;5034200;28;20033;-75
2021/04/17 07:55:33;;;;;;;9.25;3.15;;;8.10;70.20;;;;;;5034041;28;20033;-73
2021/04/17 07:58:01;;;;;;;2.50;2.28;;;8.20;72.90;;;;;;5033930;28;20026;-72
2021/04/17 08:00:27;;;;;;;3.83;3.03;;;8.30;71.90;;;;;;5033487;28;20137;-72
2021/04/17 08:02:55;;;;;;;19.75;3.50;;;8.20;70.40;;;;;;5034362;28;20029;-72
2021/04/17 08:05:23;;;;;;;5.80;3.00;;;7.90;71.20;;;;;;5038960;28;20017;-72
2021/04/17 08:07:50;;;;;;;4.70;3.28;;;8.00;70.70;;;;;;5045001;28;20498;-72
2021/04/17 08:10:17;;;;;;;3.67;2.90;;;8.00;71.60;;;;;;5049564;28;20048;-73
2021/04/17 08:12:44;;;;;;;4.32;2.85;;;8.40;70.60;;;;;;5054969;28;20040;-73
2021/04/17 08:15:13;;;;;;;4.75;3.20;;;8.50;70.00;;;;;;5052809;28;20348;-73
2021/04/17 08:17:43;;;;;;;5.03;2.50;;;8.60;69.50;;;;;;5034241;28;20109;-73
2021/04/17 08:20:11;;;;;;;4.45;3.08;;;8.60;69.40;;;;;;5033472;28;20556;-73
2021/04/17 08:22:38;;;;;;;5.88;2.78;;;8.30;71.80;;;;;;5032595;28;20048;-73
2021/04/17 08:25:05;;;;;;;8.55;3.28;;;8.60;69.60;;;;;;5033913;28;20112;-72
2021/04/17 08:27:32;;;;;;;4.75;3.03;;;7.90;68.90;;;;;;5033825;28;20034;-72
2021/04/17 08:29:59;;;;;;;6.18;2.90;;;8.20;70.50;;;;;;5032335;28;20568;-72
2021/04/17 08:32:46;;;;;;;5.03;2.88;;;8.50;69.30;;;;;;5033253;28;20029;-72
2021/04/17 08:35:24;;;;;;;6.88;3.00;;;8.60;69.50;;;;;;5033213;28;20032;-72
2021/04/17 08:37:50;;;;;;;4.47;2.70;;;8.80;67.50;;;;;;5033543;28;20449;-72
2021/04/17 08:40:36;;;;;;;5.63;2.70;;;8.90;70.40;;;;;;5033542;28;20037;-72
2021/04/17 08:43:08;;;;;;;8.82;3.80;;;9.60;67.90;;;;;;5033355;28;20033;-72
2021/04/17 08:45:35;;;;;;;4.93;2.80;;;10.30;65.50;;;;;;5033563;28;20029;-72
2021/04/17 08:48:02;;;;;;;6.90;3.15;;;10.50;65.90;;;;;;5033603;28;20028;-73
2021/04/17 08:50:35;;;;;;;5.70;2.88;;;10.50;65.50;;;;;;5032847;28;20526;-73
2021/04/17 08:53:15;;;;;;;3.50;2.88;;;10.80;65.60;;;;;;5033349;28;20038;-73
2021/04/17 08:55:40;;;;;;;3.22;2.92;;;11.00;63.40;;;;;;5014791;28;20445;-73
2021/04/17 08:58:17;;;;;;;4.25;3.22;;;10.70;61.90;;;;;;5033631;28;20108;-73
2021/04/17 09:00:52;;;;;;;3.00;2.70;;;10.80;63.90;;;;;;5050414;28;20502;-73
2021/04/17 09:03:42;;;;;;;3.53;3.00;;;10.10;63.60;;;;;;5035119;28;20473;-73
2021/04/17 09:06:29;;;;;;;6.13;3.30;;;10.20;62.70;;;;;;5032250;28;20117;-73
2021/04/17 09:09:20;;;;;;;4.95;3.25;;;10.50;63.30;;;;;;5032260;28;20026;-73
2021/04/17 09:11:47;;;;;;;3.55;3.08;;;11.10;62.60;;;;;;5028663;28;20025;-73
2021/04/17 09:14:28;;;;;;;5.30;3.05;;;11.00;60.00;;;;;;5052648;28;20025;-73
2021/04/17 09:16:56;;;;;;;5.57;3.30;;;11.60;62.10;;;;;;5035418;28;20026;-73
2021/04/17 09:19:49;;;;;;;3.40;3.03;;;11.40;60.80;;;;;;5047103;28;20036;-73
2021/04/17 09:22:34;;;;;;;3.90;2.97;;;10.80;61.90;;;;;;5031294;28;20053;-73
2021/04/17 09:25:01;;;;;;;9.07;3.40;;;10.80;61.50;;;;;;5032376;28;20025;-73
2021/04/17 09:27:28;;;;;;;3.60;3.15;;;11.30;62.20;;;;;;5032158;28;20022;-73
2021/04/17 09:30:06;;;;;;;3.50;3.20;;;11.10;61.80;;;;;;5032766;28;20514;-73
2021/04/17 09:32:38;;;;;;;4.15;3.33;;;12.30;59.20;;;;;;5032737;28;20087;-73
2021/04/17 09:35:34;;;;;;;3.90;3.05;;;16.90;52.40;;;;;;5032785;28;20064;-73
2021/04/17 09:38:03;;;;;;;5.43;4.15;;;13.10;54.20;;;;;;5032479;28;20049;-73
2021/04/17 09:40:31;;;;;;;4.35;3.90;;;14.40;56.20;;;;;;5032187;28;20129;-73
2021/04/17 09:42:57;;;;;;;5.68;4.00;;;16.60;50.40;;;;;;5032631;28;20092;-73
2021/04/17 09:45:39;;;;;;;3.33;3.03;;;18.50;50.60;;;;;;5032386;28;20087;-73
2021/04/17 09:48:07;;;;;;;4.03;3.63;;;15.00;51.20;;;;;;5032187;28;20026;-73
2021/04/17 09:50:34;;;;;;;4.15;3.75;;;16.20;49.40;;;;;;5031994;28;20071;-73
2021/04/17 09:53:16;;;;;;;4.50;4.10;;;15.20;51.00;;;;;;5032362;28;20025;-73
2021/04/17 09:55:51;;;;;;;11.85;3.90;;;15.70;50.30;;;;;;5030968;28;20099;-73
2021/04/17 09:58:29;;;;;;;6.22;3.88;;;15.00;47.50;;;;;;5031514;28;20018;-73
2021/04/17 10:01:04;;;;;;;6.20;3.60;;;14.70;49.40;;;;;;5031555;28;20049;-74
2021/04/17 10:03:32;;;;;;;4.55;4.10;;;16.20;48.80;;;;;;5051858;28;20384;-73
2021/04/17 10:05:59;;;;;;;6.80;4.10;;;20.20;44.60;;;;;;5031766;28;20033;-74
2021/04/17 10:08:28;;;;;;;3.70;3.42;;;17.10;44.10;;;;;;5036331;28;20476;-73
2021/04/17 10:10:55;;;;;;;6.05;4.20;;;18.00;46.40;;;;;;5037900;28;20025;-74
2021/04/17 10:13:37;;;;;;;7.28;3.55;;;17.90;41.80;;;;;;5032015;28;20033;-74
2021/04/17 10:16:03;;;;;;;13.05;4.93;;;13.80;48.70;;;;;;5044551;28;20064;-74
2021/04/17 10:18:29;;;;;;;5.22;3.83;;;13.10;52.10;;;;;;5035108;28;20407;-73
2021/04/17 10:20:54;;;;;;;4.45;4.05;;;11.40;53.30;;;;;;5040175;28;20097;-73
2021/04/17 10:23:20;;;;;;;4.40;3.33;;;14.30;51.30;;;;;;5036633;28;20171;-73
2021/04/17 10:25:46;;;;;;;7.65;3.65;;;18.30;45.40;;;;;;5038974;28;20024;-73
2021/04/17 10:28:24;;;;;;;5.20;3.83;;;19.40;41.20;;;;;;5035519;28;20368;-74
2021/04/17 10:30:57;;;;;;;3.58;2.90;;;17.80;43.70;;;;;;5037599;28;20029;-73
2021/04/17 10:33:30;;;;;;;4.15;3.65;;;19.80;43.30;;;;;;5032630;28;20033;-74
2021/04/17 10:35:58;;;;;;;3.50;3.20;;;17.10;42.60;;;;;;5038751;28;20029;-74
2021/04/17 10:38:41;;;;;;;5.50;3.50;;;13.70;49.50;;;;;;5031883;28;20028;-73
2021/04/17 10:41:06;;;;;;;4.55;3.70;;;11.50;53.10;;;;;;5031274;28;20025;-73
2021/04/17 10:43:33;;;;;;;4.53;3.60;;;10.90;56.10;;;;;;5034131;28;20043;-73
2021/04/17 10:46:06;;;;;;;28.73;5.30;;;11.60;56.10;;;;;;5036974;28;20062;-73
2021/04/17 10:48:46;;;;;;;4.55;3.67;;;14.50;52.20;;;;;;5037404;28;20033;-73
2021/04/17 10:51:15;;;;;;;3.40;3.10;;;17.20;45.60;;;;;;5031984;28;20508;-73
2021/04/17 10:53:42;;;;;;;4.35;3.92;;;19.20;46.00;;;;;;5030550;28;20049;-78
2021/04/17 10:56:20;;;;;;;3.70;3.00;;;21.10;40.50;;;;;;5031823;28;20112;-73
2021/04/17 10:59:05;;;;;;;6.20;3.63;;;16.60;44.10;;;;;;5010379;28;20507;-73
2021/04/17 11:01:41;;;;;;;4.32;3.92;;;13.70;48.30;;;;;;5011524;28;20566;-73
2021/04/17 11:04:07;;;;;;;5.43;4.43;;;14.00;48.10;;;;;;5010269;28;20491;-73
2021/04/17 11:06:36;;;;;;;4.13;3.80;;;16.90;45.10;;;;;;5010440;28;20025;-73
2021/04/17 11:09:17;;;;;;;5.35;3.72;;;21.20;42.80;;;;;;5011631;28;20567;-73
2021/04/17 11:11:57;;;;;;;3.83;3.50;;;17.90;41.80;;;;;;5011742;28;20080;-73
2021/04/17 11:14:25;;;;;;;4.30;3.90;;;18.50;44.90;;;;;;5011445;28;20301;-73
2021/04/17 11:16:53;;;;;;;6.40;4.90;;;20.70;38.60;;;;;;5011480;28;20033;-73
2021/04/17 11:19:28;;;;;;;6.00;5.43;;;19.60;38.10;;;;;;5011683;28;20025;-73
2021/04/17 11:22:15;;;;;;;4.97;4.55;;;19.00;41.20;;;;;;5011632;28;20450;-73
2021/04/17 11:24:56;;;;;;;4.80;4.40;;;19.90;37.90;;;;;;5011706;28;20026;-73
2021/04/17 11:27:22;;;;;;;6.80;4.03;;;21.30;39.10;;;;;;5011474;28;20050;-73
2021/04/17 11:29:48;;;;;;;6.20;4.22;;;15.30;44.40;;;;;;5011232;28;20638;-73
2021/04/17 11:32:14;;;;;;;6.43;3.92;;;13.50;48.60;;;;;;5011345;28;20104;-73
2021/04/17 11:34:44;;;;;;;5.00;3.85;;;13.40;50.30;;;;;;5011521;28;20101;-73
2021/04/17 11:37:10;;;;;;;4.88;4.47;;;13.10;49.40;;;;;;5011183;28;20176;-73
2021/04/17 11:39:36;;;;;;;6.65;4.82;;;15.80;48.80;;;;;;5023119;28;20490;-73
2021/04/17 11:42:02;;;;;;;4.10;3.80;;;21.80;40.20;;;;;;5034390;28;20057;-73
2021/04/17 11:44:28;;;;;;;4.10;3.70;;;23.90;35.30;;;;;;5033034;28;20053;-73
2021/04/17 11:46:56;;;;;;;3.92;3.63;;;22.60;37.20;;;;;;5034674;28;20033;-73
2021/04/17 11:49:22;;;;;;;4.88;4.47;;;24.00;34.20;;;;;;5034729;28;20068;-73
2021/04/17 11:51:48;;;;;;;4.25;3.92;;;19.80;36.40;;;;;;5034423;28;20462;-73
2021/04/17 11:54:14;;;;;;;4.80;3.58;;;19.80;37.60;;;;;;5034361;28;20029;-73
2021/04/17 11:56:40;;;;;;;4.32;4.03;;;20.30;39.00;;;;;;5034683;28;20037;-73
2021/04/17 11:59:05;;;;;;;5.60;3.67;;;19.70;40.50;;;;;;5033805;28;20084;-73
2021/04/17 12:01:31;;;;;;;3.95;3.65;;;17.00;42.70;;;;;;5034423;28;20033;-73
2021/04/17 12:03:57;;;;;;;3.70;3.33;;;22.10;38.20;;;;;;5034263;28;20032;-73
2021/04/17 12:06:29;;;;;;;4.68;4.28;;;21.50;38.30;;;;;;5032948;28;20051;-73
2021/04/17 12:08:59;;;;;;;4.00;3.60;;;19.90;38.40;;;;;;5034393;28;20049;-73
2021/04/17 12:11:25;;;;;;;4.22;3.83;;;21.30;38.60;;;;;;5034141;28;20040;-73
2021/04/17 12:13:52;;;;;;;3.60;3.30;;;16.90;39.90;;;;;;5033797;28;20495;-73
2021/04/17 12:16:18;;;;;;;3.63;3.38;;;15.10;45.70;;;;;;5033960;28;20033;-73
2021/04/17 12:18:45;;;;;;;5.90;3.85;;;14.20;46.40;;;;;;5033812;28;20025;-73
2021/04/17 12:21:11;;;;;;;14.32;4.80;;;14.40;47.80;;;;;;5032563;28;20388;-73
2021/04/17 12:23:37;;;;;;;4.22;3.92;;;16.40;45.70;;;;;;5033899;28;20033;-73
2021/04/17 12:26:03;;;;;;;3.83;3.53;;;22.40;40.80;;;;;;5033711;28;20376;-73
2021/04/17 12:28:29;;;;;;;6.07;4.03;;;25.60;38.20;;;;;;5033453;28;20029;-73
2021/04/17 12:30:56;;;;;;;3.85;3.55;;;25.40;35.30;;;;;;5033778;28;20105;-73
2021/04/17 12:33:22;;;;;;;5.75;3.15;;;27.30;34.90;;;;;;5033668;28;20053;-73
2021/04/17 12:35:49;;;;;;;4.32;3.33;;;28.30;34.00;;;;;;5032427;28;20434;-73
2021/04/17 12:38:15;;;;;;;3.58;3.35;;;29.00;33.60;;;;;;5033461;28;20610;-74
2021/04/17 12:40:41;;;;;;;3.50;3.20;;;23.80;31.70;;;;;;5033586;28;20525;-74
2021/04/17 12:43:09;;;;;;;3.40;3.20;;;18.50;37.60;;;;;;5033223;28;20494;-74
2021/04/17 12:45:38;;;;;;;70.00;15.35;;;18.10;42.70;;;;;;5033590;28;20111;-74
2021/04/17 12:48:04;;;;;;;4.38;3.95;;;21.80;35.30;;;;;;5033583;28;20147;-74
2021/04/17 12:50:30;;;;;;;23.27;7.80;;;22.60;37.50;;;;;;5032396;28;20835;-74
2021/04/17 12:52:56;;;;;;;53.63;10.65;;;26.20;34.80;;;;;;5033375;28;20040;-74
2021/04/17 12:55:22;;;;;;;11.43;4.82;;;27.40;34.00;;;;;;5033188;28;20025;-74
2021/04/17 12:57:47;;;;;;;4.65;3.35;;;22.80;35.50;;;;;;5032919;28;20030;-74
2021/04/17 13:00:14;;;;;;;6.47;4.20;;;23.60;35.10;;;;;;5032845;28;20060;-74
2021/04/17 13:02:39;;;;;;;12.25;3.63;;;20.60;35.00;;;;;;5033187;28;20033;-74